Aeroporto :
LOGIN :

Iscrizione | Disclaimer

   EN    FR    IT 

 










Sommario :    VFR   VFR Marginale   IFR   IFR Intensivo   IFR Molto Intensivo
Visibilità : 
Base nubi : 
>= 8 km
>= 3000ft
5 / 8 km
1000 / 3000 ft
1500m / 5 km
500 / 1000 ft
800 / 1500m
200 / 500 ft
< 800m
< 200 ft
Simboli :   Temporali  Nebbia  Neve Forte  Precipitazioni Forti  Vento > 20 kt
SIGMETs :   Varie  Temporali  Ghiacco  Turbolenza  Onda orograficha  Ceneri Vulcaniche







- Altitudine del aeroporto : 247 ft
- Codice IATA : BLL


EKBI - Billund

ULTIMO METAR :
  • 240820Z AUTO 13004KT 080V200 9999 NCD 24/18 Q1019

METARs OBSOLETI :
  • 240750Z AUTO 13005KT 100V170 9999 NCD 22/17 Q1019
  • 240720Z AUTO 13006KT 100V170 9999 NCD 22/17 Q1019
  • 240650Z AUTO 12005KT 080V150 9999 NCD 21/17 Q1019
  • 240620Z AUTO 12005KT 090V150 9999 NCD 20/16 Q1019
  • 240550Z AUTO 12004KT 090V150 9999 NCD 19/16 Q1019
  • 240520Z AUTO 12003KT 9999 NCD 18/16 Q1019

TAF TAF EKBI
Valido dal 24 a 06 ore il 25 a 06 ore UTC


240511Z 2406/2506 12005KT 9999 FEW035
Nessun NOTAM noto per questo aeroporto.



MetMap, La meteo Aeronautica in un colpo d'occhio ! - Copyright ORBIFLY Dicembre 2007 - Disclaimer

ORBIFLY MET'MAP TEAM :

Programmazione e sviluppo : Alexandra Zaïnal
Concezione e sviluppo : Baudouin d'Aumeries
Co-Programmazione e sviluppo : Marc-Olivier Méhu
Supporto tecnico e logistico : Manuel Goepfert
Aiuto per la traduzione : Arnaldo La Scala

Contatto : metmap@orbifly.com




FONTI E CREDITI :

   NOAA